sensor_id;sensor_type;location;lat;lon;timestamp;P1;durP1;ratioP1;P2;durP2;ratioP2
62584;SDS011;48643;51.670;5.808;2023-10-08T00:01:03;8.20;;;4.30;;
62584;SDS011;48643;51.670;5.808;2023-10-08T00:03:33;8.48;;;4.25;;
62584;SDS011;48643;51.670;5.808;2023-10-08T00:06:04;7.10;;;4.10;;
62584;SDS011;48643;51.670;5.808;2023-10-08T00:08:39;8.65;;;4.50;;
62584;SDS011;48643;51.670;5.808;2023-10-08T00:11:05;7.03;;;3.85;;
62584;SDS011;48643;51.670;5.808;2023-10-08T00:13:34;10.45;;;4.60;;
62584;SDS011;48643;51.670;5.808;2023-10-08T00:16:11;9.55;;;4.05;;
62584;SDS011;48643;51.670;5.808;2023-10-08T00:18:44;8.85;;;3.97;;
62584;SDS011;48643;51.670;5.808;2023-10-08T00:21:19;11.05;;;4.30;;
62584;SDS011;48643;51.670;5.808;2023-10-08T00:23:53;10.68;;;3.95;;
62584;SDS011;48643;51.670;5.808;2023-10-08T00:26:22;7.63;;;3.90;;
62584;SDS011;48643;51.670;5.808;2023-10-08T00:29:03;8.57;;;4.05;;
62584;SDS011;48643;51.670;5.808;2023-10-08T00:31:48;9.00;;;4.20;;
62584;SDS011;48643;51.670;5.808;2023-10-08T00:34:16;8.02;;;4.00;;
62584;SDS011;48643;51.670;5.808;2023-10-08T00:36:46;12.60;;;4.15;;
62584;SDS011;48643;51.670;5.808;2023-10-08T00:39:17;7.90;;;3.78;;
62584;SDS011;48643;51.670;5.808;2023-10-08T00:41:51;7.53;;;4.35;;
62584;SDS011;48643;51.670;5.808;2023-10-08T00:44:26;8.13;;;4.13;;
62584;SDS011;48643;51.670;5.808;2023-10-08T00:46:57;8.57;;;3.90;;
62584;SDS011;48643;51.670;5.808;2023-10-08T00:49:28;8.57;;;4.20;;
62584;SDS011;48643;51.670;5.808;2023-10-08T00:52:14;6.93;;;3.80;;
62584;SDS011;48643;51.670;5.808;2023-10-08T00:54:42;10.23;;;4.50;;
62584;SDS011;48643;51.670;5.808;2023-10-08T00:57:29;9.25;;;3.95;;
62584;SDS011;48643;51.670;5.808;2023-10-08T00:59:56;9.13;;;4.00;;
62584;SDS011;48643;51.670;5.808;2023-10-08T01:02:28;7.72;;;4.22;;
62584;SDS011;48643;51.670;5.808;2023-10-08T01:05:09;9.05;;;4.13;;
62584;SDS011;48643;51.670;5.808;2023-10-08T01:07:38;9.02;;;4.05;;
62584;SDS011;48643;51.670;5.808;2023-10-08T01:10:10;8.52;;;3.80;;
62584;SDS011;48643;51.670;5.808;2023-10-08T01:12:40;8.50;;;3.83;;
62584;SDS011;48643;51.670;5.808;2023-10-08T01:15:15;7.55;;;3.83;;
62584;SDS011;48643;51.670;5.808;2023-10-08T01:17:45;7.30;;;4.07;;
62584;SDS011;48643;51.670;5.808;2023-10-08T01:20:18;9.15;;;4.22;;
62584;SDS011;48643;51.670;5.808;2023-10-08T01:23:04;9.45;;;4.07;;
62584;SDS011;48643;51.670;5.808;2023-10-08T01:25:41;8.50;;;3.95;;
62584;SDS011;48643;51.670;5.808;2023-10-08T01:28:09;8.00;;;4.00;;
62584;SDS011;48643;51.670;5.808;2023-10-08T01:30:57;7.20;;;3.70;;
62584;SDS011;48643;51.670;5.808;2023-10-08T01:33:28;7.53;;;3.78;;
62584;SDS011;48643;51.670;5.808;2023-10-08T01:35:55;9.20;;;4.22;;
62584;SDS011;48643;51.670;5.808;2023-10-08T01:38:30;10.23;;;4.00;;
62584;SDS011;48643;51.670;5.808;2023-10-08T01:40:58;7.50;;;3.88;;
62584;SDS011;48643;51.670;5.808;2023-10-08T01:43:54;9.77;;;4.22;;
62584;SDS011;48643;51.670;5.808;2023-10-08T01:46:21;7.60;;;3.83;;
62584;SDS011;48643;51.670;5.808;2023-10-08T01:48:49;8.77;;;3.90;;
62584;SDS011;48643;51.670;5.808;2023-10-08T01:51:19;6.85;;;3.40;;
62584;SDS011;48643;51.670;5.808;2023-10-08T01:53:53;6.72;;;3.92;;
62584;SDS011;48643;51.670;5.808;2023-10-08T01:56:21;8.00;;;3.83;;
62584;SDS011;48643;51.670;5.808;2023-10-08T01:58:48;8.10;;;4.00;;
62584;SDS011;48643;51.670;5.808;2023-10-08T02:01:19;7.10;;;3.70;;
62584;SDS011;48643;51.670;5.808;2023-10-08T02:03:48;10.65;;;4.10;;
62584;SDS011;48643;51.670;5.808;2023-10-08T02:06:16;7.82;;;3.78;;
62584;SDS011;48643;51.670;5.808;2023-10-08T02:08:43;7.25;;;4.18;;
62584;SDS011;48643;51.670;5.808;2023-10-08T02:11:11;9.18;;;4.03;;
62584;SDS011;48643;51.670;5.808;2023-10-08T02:13:37;7.72;;;3.75;;
62584;SDS011;48643;51.670;5.808;2023-10-08T02:16:04;7.85;;;3.83;;
62584;SDS011;48643;51.670;5.808;2023-10-08T02:18:31;7.72;;;3.80;;
62584;SDS011;48643;51.670;5.808;2023-10-08T02:20:59;8.25;;;3.90;;
62584;SDS011;48643;51.670;5.808;2023-10-08T02:23:26;9.73;;;4.13;;
62584;SDS011;48643;51.670;5.808;2023-10-08T02:25:54;9.27;;;4.10;;
62584;SDS011;48643;51.670;5.808;2023-10-08T02:28:21;7.43;;;3.95;;
62584;SDS011;48643;51.670;5.808;2023-10-08T02:30:50;9.48;;;4.13;;
62584;SDS011;48643;51.670;5.808;2023-10-08T02:33:17;8.35;;;4.00;;
62584;SDS011;48643;51.670;5.808;2023-10-08T02:35:44;8.38;;;3.97;;
62584;SDS011;48643;51.670;5.808;2023-10-08T02:38:13;11.23;;;4.32;;
62584;SDS011;48643;51.670;5.808;2023-10-08T02:40:48;8.20;;;3.95;;
62584;SDS011;48643;51.670;5.808;2023-10-08T02:43:16;8.70;;;4.00;;
62584;SDS011;48643;51.670;5.808;2023-10-08T02:45:44;11.60;;;4.25;;
62584;SDS011;48643;51.670;5.808;2023-10-08T02:48:16;8.88;;;4.30;;
62584;SDS011;48643;51.670;5.808;2023-10-08T02:50:44;9.50;;;3.78;;
62584;SDS011;48643;51.670;5.808;2023-10-08T02:53:12;8.07;;;3.92;;
62584;SDS011;48643;51.670;5.808;2023-10-08T02:55:44;9.48;;;3.80;;
62584;SDS011;48643;51.670;5.808;2023-10-08T02:58:13;8.27;;;3.78;;
62584;SDS011;48643;51.670;5.808;2023-10-08T03:00:41;7.47;;;3.90;;
62584;SDS011;48643;51.670;5.808;2023-10-08T03:03:09;8.45;;;3.75;;
62584;SDS011;48643;51.670;5.808;2023-10-08T03:05:47;8.52;;;4.00;;
62584;SDS011;48643;51.670;5.808;2023-10-08T03:08:16;6.70;;;3.58;;
62584;SDS011;48643;51.670;5.808;2023-10-08T03:10:49;10.23;;;4.00;;
62584;SDS011;48643;51.670;5.808;2023-10-08T03:13:21;8.38;;;3.67;;
62584;SDS011;48643;51.670;5.808;2023-10-08T03:15:48;7.47;;;3.80;;
62584;SDS011;48643;51.670;5.808;2023-10-08T03:18:24;6.40;;;3.50;;
62584;SDS011;48643;51.670;5.808;2023-10-08T03:20:51;8.18;;;3.67;;
62584;SDS011;48643;51.670;5.808;2023-10-08T03:23:19;7.85;;;3.47;;
62584;SDS011;48643;51.670;5.808;2023-10-08T03:26:01;7.43;;;3.63;;
62584;SDS011;48643;51.670;5.808;2023-10-08T03:28:38;7.70;;;3.70;;
62584;SDS011;48643;51.670;5.808;2023-10-08T03:31:07;6.97;;;3.75;;
62584;SDS011;48643;51.670;5.808;2023-10-08T03:33:44;7.35;;;3.65;;
62584;SDS011;48643;51.670;5.808;2023-10-08T03:36:15;7.32;;;3.75;;
62584;SDS011;48643;51.670;5.808;2023-10-08T03:38:49;8.02;;;3.88;;
62584;SDS011;48643;51.670;5.808;2023-10-08T03:41:23;7.45;;;3.50;;
62584;SDS011;48643;51.670;5.808;2023-10-08T03:43:59;10.25;;;3.97;;
62584;SDS011;48643;51.670;5.808;2023-10-08T03:46:32;8.52;;;3.80;;
62584;SDS011;48643;51.670;5.808;2023-10-08T03:49:07;6.80;;;3.60;;
62584;SDS011;48643;51.670;5.808;2023-10-08T03:51:42;9.20;;;3.92;;
62584;SDS011;48643;51.670;5.808;2023-10-08T03:54:09;7.57;;;3.88;;
62584;SDS011;48643;51.670;5.808;2023-10-08T03:56:35;8.63;;;4.10;;
62584;SDS011;48643;51.670;5.808;2023-10-08T03:59:07;7.78;;;3.65;;
62584;SDS011;48643;51.670;5.808;2023-10-08T04:01:44;8.27;;;3.78;;
62584;SDS011;48643;51.670;5.808;2023-10-08T04:04:11;7.20;;;3.47;;
62584;SDS011;48643;51.670;5.808;2023-10-08T04:06:42;8.38;;;3.80;;
62584;SDS011;48643;51.670;5.808;2023-10-08T04:09:16;8.10;;;3.75;;
62584;SDS011;48643;51.670;5.808;2023-10-08T04:11:52;9.60;;;3.65;;
62584;SDS011;48643;51.670;5.808;2023-10-08T04:14:24;7.40;;;4.00;;
62584;SDS011;48643;51.670;5.808;2023-10-08T04:16:51;7.43;;;3.60;;
62584;SDS011;48643;51.670;5.808;2023-10-08T04:19:19;8.75;;;3.88;;
62584;SDS011;48643;51.670;5.808;2023-10-08T04:21:47;6.68;;;3.70;;
62584;SDS011;48643;51.670;5.808;2023-10-08T04:24:21;7.60;;;3.80;;
62584;SDS011;48643;51.670;5.808;2023-10-08T04:27:01;7.90;;;3.80;;
62584;SDS011;48643;51.670;5.808;2023-10-08T04:29:35;9.45;;;3.95;;
62584;SDS011;48643;51.670;5.808;2023-10-08T04:32:04;10.35;;;4.35;;
62584;SDS011;48643;51.670;5.808;2023-10-08T04:34:35;8.18;;;3.60;;
62584;SDS011;48643;51.670;5.808;2023-10-08T04:37:02;8.05;;;3.92;;
62584;SDS011;48643;51.670;5.808;2023-10-08T04:39:39;7.07;;;3.78;;
62584;SDS011;48643;51.670;5.808;2023-10-08T04:42:13;7.22;;;3.72;;
62584;SDS011;48643;51.670;5.808;2023-10-08T04:44:40;7.75;;;3.63;;
62584;SDS011;48643;51.670;5.808;2023-10-08T04:47:07;7.13;;;3.70;;
62584;SDS011;48643;51.670;5.808;2023-10-08T04:49:54;9.02;;;3.97;;
62584;SDS011;48643;51.670;5.808;2023-10-08T04:52:23;8.90;;;4.07;;
62584;SDS011;48643;51.670;5.808;2023-10-08T04:54:51;7.53;;;4.00;;
62584;SDS011;48643;51.670;5.808;2023-10-08T04:57:20;7.80;;;3.90;;
62584;SDS011;48643;51.670;5.808;2023-10-08T04:59:52;8.18;;;3.75;;
62584;SDS011;48643;51.670;5.808;2023-10-08T05:02:24;7.72;;;3.78;;
62584;SDS011;48643;51.670;5.808;2023-10-08T05:05:02;8.07;;;4.03;;
62584;SDS011;48643;51.670;5.808;2023-10-08T05:07:38;8.27;;;3.95;;
62584;SDS011;48643;51.670;5.808;2023-10-08T05:10:11;7.65;;;3.78;;
62584;SDS011;48643;51.670;5.808;2023-10-08T05:12:54;7.13;;;3.70;;
62584;SDS011;48643;51.670;5.808;2023-10-08T05:15:30;10.82;;;4.00;;
62584;SDS011;48643;51.670;5.808;2023-10-08T05:18:08;7.97;;;3.80;;
62584;SDS011;48643;51.670;5.808;2023-10-08T05:20:40;9.80;;;3.95;;
62584;SDS011;48643;51.670;5.808;2023-10-08T05:23:17;7.75;;;3.97;;
62584;SDS011;48643;51.670;5.808;2023-10-08T05:25:51;7.90;;;3.70;;
62584;SDS011;48643;51.670;5.808;2023-10-08T05:28:36;7.95;;;3.65;;
62584;SDS011;48643;51.670;5.808;2023-10-08T05:31:16;9.27;;;4.30;;
62584;SDS011;48643;51.670;5.808;2023-10-08T05:33:43;7.85;;;4.03;;
62584;SDS011;48643;51.670;5.808;2023-10-08T05:36:28;8.20;;;3.72;;
62584;SDS011;48643;51.670;5.808;2023-10-08T05:39:02;6.68;;;3.80;;
62584;SDS011;48643;51.670;5.808;2023-10-08T05:41:48;8.70;;;3.83;;
62584;SDS011;48643;51.670;5.808;2023-10-08T05:44:18;7.90;;;3.70;;
62584;SDS011;48643;51.670;5.808;2023-10-08T05:46:45;10.80;;;3.85;;
62584;SDS011;48643;51.670;5.808;2023-10-08T05:49:21;9.32;;;4.18;;
62584;SDS011;48643;51.670;5.808;2023-10-08T05:51:58;8.88;;;3.90;;
62584;SDS011;48643;51.670;5.808;2023-10-08T05:54:25;8.70;;;4.28;;
62584;SDS011;48643;51.670;5.808;2023-10-08T05:57:00;8.63;;;3.90;;
62584;SDS011;48643;51.670;5.808;2023-10-08T05:59:41;7.60;;;3.83;;
62584;SDS011;48643;51.670;5.808;2023-10-08T06:02:22;7.63;;;4.07;;
62584;SDS011;48643;51.670;5.808;2023-10-08T06:05:12;9.07;;;3.72;;
62584;SDS011;48643;51.670;5.808;2023-10-08T06:10:24;7.13;;;3.92;;
62584;SDS011;48643;51.670;5.808;2023-10-08T06:13:00;8.30;;;4.00;;
62584;SDS011;48643;51.670;5.808;2023-10-08T06:15:37;8.68;;;3.97;;
62584;SDS011;48643;51.670;5.808;2023-10-08T06:18:26;7.35;;;3.60;;
62584;SDS011;48643;51.670;5.808;2023-10-08T06:20:56;5.88;;;3.50;;
62584;SDS011;48643;51.670;5.808;2023-10-08T06:23:27;9.77;;;3.97;;
62584;SDS011;48643;51.670;5.808;2023-10-08T06:25:55;8.47;;;3.93;;
62584;SDS011;48643;51.670;5.808;2023-10-08T06:28:25;10.18;;;4.00;;
62584;SDS011;48643;51.670;5.808;2023-10-08T06:30:53;7.75;;;3.90;;
62584;SDS011;48643;51.670;5.808;2023-10-08T06:33:22;6.07;;;3.58;;
62584;SDS011;48643;51.670;5.808;2023-10-08T06:35:52;7.38;;;3.65;;
62584;SDS011;48643;51.670;5.808;2023-10-08T06:38:37;7.40;;;3.85;;
62584;SDS011;48643;51.670;5.808;2023-10-08T06:41:05;6.78;;;3.60;;
62584;SDS011;48643;51.670;5.808;2023-10-08T06:44:16;9.02;;;4.07;;
62584;SDS011;48643;51.670;5.808;2023-10-08T06:46:43;6.20;;;3.60;;
62584;SDS011;48643;51.670;5.808;2023-10-08T06:49:10;15.55;;;6.25;;
62584;SDS011;48643;51.670;5.808;2023-10-08T06:51:39;17.52;;;7.47;;
62584;SDS011;48643;51.670;5.808;2023-10-08T06:54:09;26.70;;;7.72;;
62584;SDS011;48643;51.670;5.808;2023-10-08T06:56:40;16.90;;;7.70;;
62584;SDS011;48643;51.670;5.808;2023-10-08T06:59:13;20.08;;;7.55;;
62584;SDS011;48643;51.670;5.808;2023-10-08T07:01:41;19.52;;;7.47;;
62584;SDS011;48643;51.670;5.808;2023-10-08T07:04:12;18.13;;;7.47;;
62584;SDS011;48643;51.670;5.808;2023-10-08T07:06:41;18.92;;;7.75;;
62584;SDS011;48643;51.670;5.808;2023-10-08T07:09:10;17.35;;;7.88;;
62584;SDS011;48643;51.670;5.808;2023-10-08T07:11:56;17.67;;;7.63;;
62584;SDS011;48643;51.670;5.808;2023-10-08T07:14:24;23.08;;;7.90;;
62584;SDS011;48643;51.670;5.808;2023-10-08T07:16:54;18.60;;;7.72;;
62584;SDS011;48643;51.670;5.808;2023-10-08T07:19:29;19.65;;;7.70;;
62584;SDS011;48643;51.670;5.808;2023-10-08T07:22:04;26.10;;;7.93;;
62584;SDS011;48643;51.670;5.808;2023-10-08T07:24:45;31.92;;;8.48;;
62584;SDS011;48643;51.670;5.808;2023-10-08T07:27:20;32.08;;;8.43;;
62584;SDS011;48643;51.670;5.808;2023-10-08T07:29:56;38.58;;;7.97;;
62584;SDS011;48643;51.670;5.808;2023-10-08T07:32:27;39.72;;;8.93;;
62584;SDS011;48643;51.670;5.808;2023-10-08T07:34:57;27.63;;;7.75;;
62584;SDS011;48643;51.670;5.808;2023-10-08T07:37:40;30.35;;;8.07;;
62584;SDS011;48643;51.670;5.808;2023-10-08T07:40:09;35.97;;;8.97;;
62584;SDS011;48643;51.670;5.808;2023-10-08T07:42:38;25.73;;;7.85;;
62584;SDS011;48643;51.670;5.808;2023-10-08T07:45:05;36.10;;;8.00;;
62584;SDS011;48643;51.670;5.808;2023-10-08T07:47:32;27.23;;;7.95;;
62584;SDS011;48643;51.670;5.808;2023-10-08T07:49:59;24.80;;;7.43;;
62584;SDS011;48643;51.670;5.808;2023-10-08T07:52:26;25.13;;;6.82;;
62584;SDS011;48643;51.670;5.808;2023-10-08T07:54:53;29.63;;;6.97;;
62584;SDS011;48643;51.670;5.808;2023-10-08T07:57:19;25.10;;;5.95;;
62584;SDS011;48643;51.670;5.808;2023-10-08T07:59:52;22.90;;;5.40;;
62584;SDS011;48643;51.670;5.808;2023-10-08T08:02:37;26.20;;;5.47;;
62584;SDS011;48643;51.670;5.808;2023-10-08T08:05:05;23.77;;;5.60;;
62584;SDS011;48643;51.670;5.808;2023-10-08T08:07:32;25.05;;;5.90;;
62584;SDS011;48643;51.670;5.808;2023-10-08T08:09:59;23.25;;;5.95;;
62584;SDS011;48643;51.670;5.808;2023-10-08T08:12:27;22.70;;;5.63;;
62584;SDS011;48643;51.670;5.808;2023-10-08T08:14:55;12.85;;;5.05;;
62584;SDS011;48643;51.670;5.808;2023-10-08T08:17:22;22.30;;;6.18;;
62584;SDS011;48643;51.670;5.808;2023-10-08T08:19:50;25.73;;;5.53;;
62584;SDS011;48643;51.670;5.808;2023-10-08T08:22:18;21.37;;;5.30;;
62584;SDS011;48643;51.670;5.808;2023-10-08T08:24:50;17.05;;;4.60;;
62584;SDS011;48643;51.670;5.808;2023-10-08T08:27:44;18.02;;;5.10;;
62584;SDS011;48643;51.670;5.808;2023-10-08T08:30:13;20.13;;;5.10;;
62584;SDS011;48643;51.670;5.808;2023-10-08T08:32:44;20.55;;;5.10;;
62584;SDS011;48643;51.670;5.808;2023-10-08T08:35:18;16.45;;;5.03;;
62584;SDS011;48643;51.670;5.808;2023-10-08T08:37:46;19.25;;;4.97;;
62584;SDS011;48643;51.670;5.808;2023-10-08T08:40:13;17.70;;;4.90;;
62584;SDS011;48643;51.670;5.808;2023-10-08T08:42:47;13.90;;;4.60;;
62584;SDS011;48643;51.670;5.808;2023-10-08T08:45:18;12.35;;;4.25;;
62584;SDS011;48643;51.670;5.808;2023-10-08T08:47:47;12.90;;;4.25;;
62584;SDS011;48643;51.670;5.808;2023-10-08T08:50:14;13.73;;;4.80;;
62584;SDS011;48643;51.670;5.808;2023-10-08T08:52:41;11.88;;;4.63;;
62584;SDS011;48643;51.670;5.808;2023-10-08T08:55:08;13.48;;;4.20;;
62584;SDS011;48643;51.670;5.808;2023-10-08T08:57:44;12.23;;;4.28;;
62584;SDS011;48643;51.670;5.808;2023-10-08T09:00:13;10.65;;;4.43;;
62584;SDS011;48643;51.670;5.808;2023-10-08T09:02:43;12.77;;;4.78;;
62584;SDS011;48643;51.670;5.808;2023-10-08T09:05:11;9.30;;;3.67;;
62584;SDS011;48643;51.670;5.808;2023-10-08T09:08:03;8.95;;;3.90;;
62584;SDS011;48643;51.670;5.808;2023-10-08T09:10:36;12.05;;;3.78;;
62584;SDS011;48643;51.670;5.808;2023-10-08T09:13:05;9.25;;;4.00;;
62584;SDS011;48643;51.670;5.808;2023-10-08T09:18:01;15.77;;;3.85;;
62584;SDS011;48643;51.670;5.808;2023-10-08T09:20:28;9.65;;;3.85;;
62584;SDS011;48643;51.670;5.808;2023-10-08T09:25:38;9.50;;;3.83;;
62584;SDS011;48643;51.670;5.808;2023-10-08T09:28:06;9.02;;;3.83;;
62584;SDS011;48643;51.670;5.808;2023-10-08T09:30:40;11.43;;;3.78;;
62584;SDS011;48643;51.670;5.808;2023-10-08T09:33:08;12.23;;;3.42;;
62584;SDS011;48643;51.670;5.808;2023-10-08T09:35:36;11.27;;;3.63;;
62584;SDS011;48643;51.670;5.808;2023-10-08T09:38:04;13.73;;;3.10;;
62584;SDS011;48643;51.670;5.808;2023-10-08T09:40:36;8.55;;;3.22;;
62584;SDS011;48643;51.670;5.808;2023-10-08T09:43:03;8.30;;;3.15;;
62584;SDS011;48643;51.670;5.808;2023-10-08T09:45:31;7.38;;;3.00;;
62584;SDS011;48643;51.670;5.808;2023-10-08T09:47:59;8.32;;;3.00;;
62584;SDS011;48643;51.670;5.808;2023-10-08T09:50:32;10.80;;;4.70;;
62584;SDS011;48643;51.670;5.808;2023-10-08T09:55:37;4.85;;;2.30;;
62584;SDS011;48643;51.670;5.808;2023-10-08T09:58:15;8.57;;;2.47;;
62584;SDS011;48643;51.670;5.808;2023-10-08T10:00:43;6.40;;;2.70;;
62584;SDS011;48643;51.670;5.808;2023-10-08T10:03:11;5.88;;;2.30;;
62584;SDS011;48643;51.670;5.808;2023-10-08T10:05:39;8.80;;;2.30;;
62584;SDS011;48643;51.670;5.808;2023-10-08T10:08:06;5.00;;;1.98;;
62584;SDS011;48643;51.670;5.808;2023-10-08T10:10:38;4.60;;;2.30;;
62584;SDS011;48643;51.670;5.808;2023-10-08T10:13:05;4.97;;;2.28;;
62584;SDS011;48643;51.670;5.808;2023-10-08T10:15:37;6.53;;;2.25;;
62584;SDS011;48643;51.670;5.808;2023-10-08T10:20:45;6.25;;;2.22;;
62584;SDS011;48643;51.670;5.808;2023-10-08T10:23:33;7.60;;;2.00;;
62584;SDS011;48643;51.670;5.808;2023-10-08T10:31:38;6.03;;;2.00;;
62584;SDS011;48643;51.670;5.808;2023-10-08T10:34:11;6.53;;;1.98;;
62584;SDS011;48643;51.670;5.808;2023-10-08T10:36:43;5.95;;;1.95;;
62584;SDS011;48643;51.670;5.808;2023-10-08T10:39:18;2.80;;;1.67;;
62584;SDS011;48643;51.670;5.808;2023-10-08T10:41:56;4.20;;;1.92;;
62584;SDS011;48643;51.670;5.808;2023-10-08T10:44:28;7.97;;;2.20;;
62584;SDS011;48643;51.670;5.808;2023-10-08T10:46:59;4.10;;;1.90;;
62584;SDS011;48643;51.670;5.808;2023-10-08T10:49:42;9.23;;;2.58;;
62584;SDS011;48643;51.670;5.808;2023-10-08T10:52:28;4.18;;;2.25;;
62584;SDS011;48643;51.670;5.808;2023-10-08T10:55:03;5.53;;;2.30;;
62584;SDS011;48643;51.670;5.808;2023-10-08T10:57:46;7.07;;;2.20;;
62584;SDS011;48643;51.670;5.808;2023-10-08T11:00:24;5.85;;;2.25;;
62584;SDS011;48643;51.670;5.808;2023-10-08T11:03:01;4.97;;;2.10;;
62584;SDS011;48643;51.670;5.808;2023-10-08T11:07:58;4.50;;;2.30;;
62584;SDS011;48643;51.670;5.808;2023-10-08T11:10:33;6.03;;;2.30;;
62584;SDS011;48643;51.670;5.808;2023-10-08T11:13:05;4.85;;;2.22;;
62584;SDS011;48643;51.670;5.808;2023-10-08T11:15:45;6.47;;;2.50;;
62584;SDS011;48643;51.670;5.808;2023-10-08T11:18:17;4.60;;;2.30;;
62584;SDS011;48643;51.670;5.808;2023-10-08T11:20:45;4.57;;;2.20;;
62584;SDS011;48643;51.670;5.808;2023-10-08T11:23:36;4.85;;;2.28;;
62584;SDS011;48643;51.670;5.808;2023-10-08T11:26:07;10.10;;;2.25;;
62584;SDS011;48643;51.670;5.808;2023-10-08T11:28:35;9.90;;;2.13;;
62584;SDS011;48643;51.670;5.808;2023-10-08T11:31:12;6.40;;;2.10;;
62584;SDS011;48643;51.670;5.808;2023-10-08T11:33:41;4.95;;;2.30;;
62584;SDS011;48643;51.670;5.808;2023-10-08T11:36:09;3.80;;;2.03;;
62584;SDS011;48643;51.670;5.808;2023-10-08T11:38:45;5.30;;;2.00;;
62584;SDS011;48643;51.670;5.808;2023-10-08T11:41:17;4.40;;;1.95;;
62584;SDS011;48643;51.670;5.808;2023-10-08T11:43:51;3.25;;;2.20;;
62584;SDS011;48643;51.670;5.808;2023-10-08T11:46:26;4.07;;;2.30;;
62584;SDS011;48643;51.670;5.808;2023-10-08T11:49:05;7.45;;;2.60;;
62584;SDS011;48643;51.670;5.808;2023-10-08T11:51:32;6.00;;;2.42;;
62584;SDS011;48643;51.670;5.808;2023-10-08T11:54:02;7.53;;;2.55;;
62584;SDS011;48643;51.670;5.808;2023-10-08T11:56:32;6.68;;;2.40;;
62584;SDS011;48643;51.670;5.808;2023-10-08T11:59:03;4.70;;;2.50;;
62584;SDS011;48643;51.670;5.808;2023-10-08T12:01:38;4.78;;;2.38;;
62584;SDS011;48643;51.670;5.808;2023-10-08T12:04:14;3.97;;;2.30;;
62584;SDS011;48643;51.670;5.808;2023-10-08T12:06:44;4.72;;;2.40;;
62584;SDS011;48643;51.670;5.808;2023-10-08T12:09:18;8.15;;;2.67;;
62584;SDS011;48643;51.670;5.808;2023-10-08T12:11:48;8.20;;;2.80;;
62584;SDS011;48643;51.670;5.808;2023-10-08T12:14:15;6.28;;;2.70;;
62584;SDS011;48643;51.670;5.808;2023-10-08T12:16:42;14.05;;;2.80;;
62584;SDS011;48643;51.670;5.808;2023-10-08T12:19:12;6.75;;;2.88;;
62584;SDS011;48643;51.670;5.808;2023-10-08T12:21:45;10.20;;;3.05;;
62584;SDS011;48643;51.670;5.808;2023-10-08T12:24:14;11.57;;;3.22;;
62584;SDS011;48643;51.670;5.808;2023-10-08T12:26:42;7.00;;;2.83;;
62584;SDS011;48643;51.670;5.808;2023-10-08T12:29:12;6.53;;;3.00;;
62584;SDS011;48643;51.670;5.808;2023-10-08T12:31:45;6.03;;;2.75;;
62584;SDS011;48643;51.670;5.808;2023-10-08T12:34:14;7.90;;;2.75;;
62584;SDS011;48643;51.670;5.808;2023-10-08T12:36:41;7.80;;;3.03;;
62584;SDS011;48643;51.670;5.808;2023-10-08T12:39:08;7.63;;;2.60;;
62584;SDS011;48643;51.670;5.808;2023-10-08T12:41:41;9.38;;;3.22;;
62584;SDS011;48643;51.670;5.808;2023-10-08T12:44:10;7.75;;;3.60;;
62584;SDS011;48643;51.670;5.808;2023-10-08T12:46:38;11.13;;;4.67;;
62584;SDS011;48643;51.670;5.808;2023-10-08T12:49:06;14.68;;;5.00;;
62584;SDS011;48643;51.670;5.808;2023-10-08T12:51:33;15.02;;;4.20;;
62584;SDS011;48643;51.670;5.808;2023-10-08T12:54:00;7.78;;;3.67;;
62584;SDS011;48643;51.670;5.808;2023-10-08T12:56:35;21.77;;;7.70;;
62584;SDS011;48643;51.670;5.808;2023-10-08T12:59:02;37.10;;;11.30;;
62584;SDS011;48643;51.670;5.808;2023-10-08T13:01:33;11.90;;;5.10;;
62584;SDS011;48643;51.670;5.808;2023-10-08T13:06:34;11.25;;;4.20;;
62584;SDS011;48643;51.670;5.808;2023-10-08T13:09:04;9.90;;;4.53;;
62584;SDS011;48643;51.670;5.808;2023-10-08T13:11:39;11.02;;;4.07;;
62584;SDS011;48643;51.670;5.808;2023-10-08T13:14:06;19.05;;;4.75;;
62584;SDS011;48643;51.670;5.808;2023-10-08T13:16:35;11.00;;;4.47;;
62584;SDS011;48643;51.670;5.808;2023-10-08T13:19:04;12.00;;;3.90;;
62584;SDS011;48643;51.670;5.808;2023-10-08T13:21:34;11.00;;;4.07;;
62584;SDS011;48643;51.670;5.808;2023-10-08T13:24:03;12.25;;;4.60;;
62584;SDS011;48643;51.670;5.808;2023-10-08T13:26:35;11.18;;;4.47;;
62584;SDS011;48643;51.670;5.808;2023-10-08T13:29:04;11.05;;;4.10;;
62584;SDS011;48643;51.670;5.808;2023-10-08T13:31:36;11.75;;;4.15;;
62584;SDS011;48643;51.670;5.808;2023-10-08T13:34:03;12.23;;;4.35;;
62584;SDS011;48643;51.670;5.808;2023-10-08T13:36:38;9.35;;;4.03;;
62584;SDS011;48643;51.670;5.808;2023-10-08T13:39:06;11.02;;;3.85;;
62584;SDS011;48643;51.670;5.808;2023-10-08T13:41:37;13.50;;;5.90;;
62584;SDS011;48643;51.670;5.808;2023-10-08T13:44:08;15.50;;;4.57;;
62584;SDS011;48643;51.670;5.808;2023-10-08T13:46:35;9.13;;;3.92;;
62584;SDS011;48643;51.670;5.808;2023-10-08T13:49:03;10.10;;;4.03;;
62584;SDS011;48643;51.670;5.808;2023-10-08T13:51:32;9.77;;;4.15;;
62584;SDS011;48643;51.670;5.808;2023-10-08T13:56:33;7.47;;;3.80;;
62584;SDS011;48643;51.670;5.808;2023-10-08T13:59:04;8.68;;;4.00;;
62584;SDS011;48643;51.670;5.808;2023-10-08T14:01:41;8.98;;;3.92;;
62584;SDS011;48643;51.670;5.808;2023-10-08T14:04:18;8.27;;;3.90;;
62584;SDS011;48643;51.670;5.808;2023-10-08T14:06:47;9.23;;;4.10;;
62584;SDS011;48643;51.670;5.808;2023-10-08T14:09:14;9.13;;;4.40;;
62584;SDS011;48643;51.670;5.808;2023-10-08T14:11:48;8.48;;;4.13;;
62584;SDS011;48643;51.670;5.808;2023-10-08T14:19:18;7.50;;;4.20;;
62584;SDS011;48643;51.670;5.808;2023-10-08T14:21:49;7.32;;;4.00;;
62584;SDS011;48643;51.670;5.808;2023-10-08T14:24:20;8.20;;;4.00;;
62584;SDS011;48643;51.670;5.808;2023-10-08T14:26:47;9.93;;;4.07;;
62584;SDS011;48643;51.670;5.808;2023-10-08T14:29:23;7.40;;;3.97;;
62584;SDS011;48643;51.670;5.808;2023-10-08T14:31:53;9.13;;;4.18;;
62584;SDS011;48643;51.670;5.808;2023-10-08T14:34:23;10.38;;;4.47;;
62584;SDS011;48643;51.670;5.808;2023-10-08T14:40:26;8.20;;;4.32;;
62584;SDS011;48643;51.670;5.808;2023-10-08T14:43:12;7.70;;;4.13;;
62584;SDS011;48643;51.670;5.808;2023-10-08T14:45:42;8.05;;;4.32;;
62584;SDS011;48643;51.670;5.808;2023-10-08T14:48:13;8.95;;;4.68;;
62584;SDS011;48643;51.670;5.808;2023-10-08T14:50:40;9.00;;;4.47;;
62584;SDS011;48643;51.670;5.808;2023-10-08T14:53:09;10.88;;;4.53;;
62584;SDS011;48643;51.670;5.808;2023-10-08T14:55:36;8.85;;;4.35;;
62584;SDS011;48643;51.670;5.808;2023-10-08T14:58:04;9.63;;;4.78;;
62584;SDS011;48643;51.670;5.808;2023-10-08T15:00:36;8.82;;;4.45;;
62584;SDS011;48643;51.670;5.808;2023-10-08T15:03:05;8.45;;;4.57;;
62584;SDS011;48643;51.670;5.808;2023-10-08T15:05:32;13.98;;;5.82;;
62584;SDS011;48643;51.670;5.808;2023-10-08T15:07:59;18.13;;;5.35;;
62584;SDS011;48643;51.670;5.808;2023-10-08T15:10:26;13.80;;;4.97;;
62584;SDS011;48643;51.670;5.808;2023-10-08T15:12:53;8.85;;;4.70;;
62584;SDS011;48643;51.670;5.808;2023-10-08T15:15:20;9.95;;;4.65;;
62584;SDS011;48643;51.670;5.808;2023-10-08T15:17:51;10.15;;;4.82;;
62584;SDS011;48643;51.670;5.808;2023-10-08T15:20:19;19.50;;;12.38;;
62584;SDS011;48643;51.670;5.808;2023-10-08T15:22:47;25.42;;;13.05;;
62584;SDS011;48643;51.670;5.808;2023-10-08T15:25:15;42.95;;;17.13;;
62584;SDS011;48643;51.670;5.808;2023-10-08T15:27:46;53.55;;;17.02;;
62584;SDS011;48643;51.670;5.808;2023-10-08T15:32:44;58.08;;;17.90;;
62584;SDS011;48643;51.670;5.808;2023-10-08T15:35:12;49.38;;;15.70;;
62584;SDS011;48643;51.670;5.808;2023-10-08T15:37:41;40.28;;;12.38;;
62584;SDS011;48643;51.670;5.808;2023-10-08T15:40:08;51.67;;;14.63;;
62584;SDS011;48643;51.670;5.808;2023-10-08T15:42:46;46.97;;;14.25;;
62584;SDS011;48643;51.670;5.808;2023-10-08T15:45:21;48.17;;;17.17;;
62584;SDS011;48643;51.670;5.808;2023-10-08T15:47:49;40.72;;;13.85;;